IBE369 EGKK-LSGG
Flight info
| Callsign | IBE369 |
|---|---|
| Flight time | N/A |
| Altitude | 31000 |
| Route | SFD Y47 BENBO L612 HAWKE UL612 VEULE DCT PEKIM DCT PILUL DCT PIMUP/N0436F270 DCT PIXIS DCT PIBAT DCT LUSAR |
| Aircraft | A320/M-SDE3FGHIRWY/LB1 |
Departure
| Time | 2026-05-06 10:13 |
|---|---|
| Airport | London Gatwick Airport (EGKK) |
Arrival
| Time | N/A |
|---|---|
| Airport | Geneva International Airport (LSGG) |
| Time | Latitude | Longitude | Altitude | Speed | Heading |
|---|---|---|---|---|---|
| 2026-05-06 09:43 | 51.15762 | -0.16768 | 212 ft | 0 kts | 347° |
| 2026-05-06 09:58 | 51.15759 | -0.16767 | 204 ft | 2 kts | 347° |
| 2026-05-06 09:58 | 51.15743 | -0.16759 | 214 ft | 3 kts | 332° |
| 2026-05-06 09:59 | 51.15725 | -0.16744 | 214 ft | 3 kts | 335° |
| 2026-05-06 09:59 | 51.15708 | -0.16732 | 206 ft | 3 kts | 326° |
| 2026-05-06 09:59 | 51.15695 | -0.16712 | 216 ft | 3 kts | 290° |
| 2026-05-06 09:59 | 51.15692 | -0.16693 | 213 ft | 3 kts | 266° |
| 2026-05-06 10:00 | 51.15693 | -0.16678 | 204 ft | 0 kts | 257° |
| 2026-05-06 10:03 | 51.15690 | -0.16701 | 211 ft | 9 kts | 257° |
| 2026-05-06 10:03 | 51.15673 | -0.16818 | 211 ft | 11 kts | 257° |
| 2026-05-06 10:03 | 51.15659 | -0.16926 | 209 ft | 9 kts | 258° |
| 2026-05-06 10:03 | 51.15647 | -0.17016 | 210 ft | 7 kts | 258° |
| 2026-05-06 10:04 | 51.15633 | -0.17120 | 214 ft | 12 kts | 258° |
| 2026-05-06 10:04 | 51.15613 | -0.17251 | 210 ft | 12 kts | 255° |
| 2026-05-06 10:04 | 51.15596 | -0.17350 | 204 ft | 8 kts | 256° |
| 2026-05-06 10:04 | 51.15575 | -0.17423 | 213 ft | 10 kts | 222° |
| 2026-05-06 10:05 | 51.15507 | -0.17425 | 208 ft | 9 kts | 169° |
| 2026-05-06 10:05 | 51.15449 | -0.17403 | 214 ft | 8 kts | 167° |
| 2026-05-06 10:05 | 51.15401 | -0.17387 | 204 ft | 6 kts | 168° |
| 2026-05-06 10:05 | 51.15352 | -0.17371 | 207 ft | 7 kts | 168° |
| 2026-05-06 10:06 | 51.15302 | -0.17425 | 206 ft | 13 kts | 252° |
| 2026-05-06 10:06 | 51.15285 | -0.17570 | 211 ft | 14 kts | 258° |
| 2026-05-06 10:06 | 51.15263 | -0.17720 | 209 ft | 14 kts | 257° |
| 2026-05-06 10:06 | 51.15239 | -0.17901 | 206 ft | 19 kts | 258° |
| 2026-05-06 10:07 | 51.15209 | -0.18114 | 204 ft | 20 kts | 257° |
| 2026-05-06 10:07 | 51.15184 | -0.18343 | 206 ft | 22 kts | 263° |
| 2026-05-06 10:07 | 51.15151 | -0.18584 | 203 ft | 23 kts | 258° |
| 2026-05-06 10:07 | 51.15116 | -0.18835 | 208 ft | 24 kts | 258° |
| 2026-05-06 10:08 | 51.15081 | -0.19098 | 209 ft | 25 kts | 257° |
| 2026-05-06 10:08 | 51.15043 | -0.19371 | 213 ft | 26 kts | 258° |
| 2026-05-06 10:08 | 51.15004 | -0.19651 | 207 ft | 26 kts | 258° |
| 2026-05-06 10:08 | 51.14966 | -0.19920 | 206 ft | 24 kts | 258° |
| 2026-05-06 10:09 | 51.14931 | -0.20183 | 207 ft | 25 kts | 258° |
| 2026-05-06 10:09 | 51.14892 | -0.20456 | 207 ft | 26 kts | 258° |
| 2026-05-06 10:09 | 51.14854 | -0.20739 | 207 ft | 26 kts | 257° |
| 2026-05-06 10:09 | 51.14817 | -0.21005 | 204 ft | 19 kts | 257° |
| 2026-05-06 10:10 | 51.14781 | -0.21201 | 207 ft | 17 kts | 260° |
| 2026-05-06 10:10 | 51.14755 | -0.21380 | 209 ft | 13 kts | 251° |
| 2026-05-06 10:10 | 51.14701 | -0.21401 | 206 ft | 9 kts | 169° |
| 2026-05-06 10:10 | 51.14654 | -0.21349 | 209 ft | 8 kts | 144° |
| 2026-05-06 10:11 | 51.14562 | -0.21297 | 203 ft | 17 kts | 150° |
| 2026-05-06 10:11 | 51.14520 | -0.21158 | 206 ft | 11 kts | 82° |
| 2026-05-06 10:11 | 51.14531 | -0.21083 | 207 ft | 1 kts | 75° |
| 2026-05-06 10:12 | 51.14567 | -0.20838 | 205 ft | 60 kts | 77° |
| 2026-05-06 10:12 | 51.14706 | -0.19839 | 205 ft | 122 kts | 77° |
| 2026-05-06 10:12 | 51.14920 | -0.18263 | 216 ft | 170 kts | 72° |
| 2026-05-06 10:12 | 51.15132 | -0.16343 | 676 ft | 182 kts | 77° |
| 2026-05-06 10:13 | 51.15367 | -0.14355 | 1483 ft | 182 kts | 75° |
| 2026-05-06 10:13 | 51.15663 | -0.12303 | 2000 ft | 200 kts | 73° |
| 2026-05-06 10:13 | 51.15996 | -0.10056 | 2516 ft | 216 kts | 74° |
| 2026-05-06 10:13 | 51.16076 | -0.07646 | 3282 ft | 227 kts | 101° |
| 2026-05-06 10:14 | 51.15181 | -0.05493 | 3896 ft | 251 kts | 140° |
| 2026-05-06 10:14 | 51.13538 | -0.04209 | 4347 ft | 276 kts | 162° |
| 2026-05-06 10:14 | 51.11637 | -0.03523 | 5122 ft | 284 kts | 171° |
| 2026-05-06 10:14 | 51.09694 | -0.03160 | 5995 ft | 286 kts | 178° |
| 2026-05-06 10:15 | 51.07676 | -0.02986 | 6908 ft | 287 kts | 179° |
| 2026-05-06 10:15 | 51.05806 | -0.02859 | 7679 ft | 290 kts | 179° |
| 2026-05-06 10:15 | 51.03774 | -0.02740 | 8507 ft | 294 kts | 179° |
| 2026-05-06 10:15 | 51.01718 | -0.02622 | 9310 ft | 299 kts | 179° |
| 2026-05-06 10:16 | 50.99622 | -0.02500 | 10083 ft | 303 kts | 178° |
| 2026-05-06 10:16 | 50.97477 | -0.02368 | 10549 ft | 319 kts | 178° |
| 2026-05-06 10:16 | 50.95180 | -0.02222 | 10747 ft | 342 kts | 178° |
| 2026-05-06 10:16 | 50.92724 | -0.02066 | 10987 ft | 362 kts | 178° |
| 2026-05-06 10:17 | 50.90177 | -0.01900 | 11585 ft | 368 kts | 178° |
| 2026-05-06 10:17 | 50.87596 | -0.01727 | 12226 ft | 374 kts | 178° |
| 2026-05-06 10:17 | 50.85024 | -0.01556 | 12938 ft | 376 kts | 179° |
| 2026-05-06 10:17 | 50.82398 | -0.01385 | 13652 ft | 379 kts | 179° |
| 2026-05-06 10:18 | 50.79763 | -0.01214 | 14335 ft | 380 kts | 179° |
| 2026-05-06 10:18 | 50.77110 | -0.01038 | 14964 ft | 383 kts | 179° |
| 2026-05-06 10:18 | 50.74439 | -0.00863 | 15566 ft | 386 kts | 180° |
| 2026-05-06 10:18 | 50.71742 | -0.00692 | 16147 ft | 389 kts | 179° |
| 2026-05-06 10:19 | 50.69024 | -0.00520 | 16716 ft | 393 kts | 180° |
| 2026-05-06 10:19 | 50.66278 | -0.00346 | 17289 ft | 396 kts | 179° |
| 2026-05-06 10:19 | 50.63508 | -0.00169 | 17862 ft | 400 kts | 179° |
| 2026-05-06 10:19 | 50.60754 | 0.00011 | 18407 ft | 403 kts | 179° |
| 2026-05-06 10:20 | 50.57936 | 0.00197 | 18889 ft | 407 kts | 179° |
| 2026-05-06 10:20 | 50.55096 | 0.00383 | 19422 ft | 410 kts | 179° |
| 2026-05-06 10:20 | 50.52243 | 0.00566 | 19955 ft | 411 kts | 179° |
| 2026-05-06 10:20 | 50.49378 | 0.00760 | 20499 ft | 413 kts | 177° |
| 2026-05-06 10:21 | 50.46531 | 0.01441 | 21028 ft | 416 kts | 167° |
| 2026-05-06 10:21 | 50.43781 | 0.02888 | 21530 ft | 419 kts | 157° |
| 2026-05-06 10:21 | 50.41207 | 0.05075 | 21974 ft | 424 kts | 148° |
| 2026-05-06 10:21 | 50.38769 | 0.07606 | 22372 ft | 427 kts | 148° |
| 2026-05-06 10:22 | 50.36284 | 0.10180 | 22831 ft | 430 kts | 148° |
| 2026-05-06 10:22 | 50.33781 | 0.12761 | 23288 ft | 431 kts | 148° |
| 2026-05-06 10:22 | 50.31272 | 0.15343 | 23696 ft | 433 kts | 148° |
| 2026-05-06 10:22 | 50.28749 | 0.17938 | 24059 ft | 435 kts | 148° |
| 2026-05-06 10:23 | 50.26218 | 0.20541 | 24408 ft | 436 kts | 148° |
| 2026-05-06 10:23 | 50.23677 | 0.23148 | 24760 ft | 438 kts | 148° |
| 2026-05-06 10:23 | 50.21124 | 0.25762 | 25088 ft | 440 kts | 148° |
| 2026-05-06 10:23 | 50.18556 | 0.28391 | 25392 ft | 442 kts | 148° |
| 2026-05-06 10:24 | 50.15982 | 0.31038 | 25708 ft | 444 kts | 147° |
| 2026-05-06 10:24 | 50.13439 | 0.33658 | 26025 ft | 445 kts | 147° |
| 2026-05-06 10:24 | 50.10849 | 0.36328 | 26333 ft | 447 kts | 147° |
| 2026-05-06 10:24 | 50.08246 | 0.39006 | 26603 ft | 450 kts | 147° |
| 2026-05-06 10:25 | 50.05627 | 0.41696 | 26881 ft | 452 kts | 147° |
| 2026-05-06 10:25 | 50.02998 | 0.44389 | 27160 ft | 454 kts | 147° |
| 2026-05-06 10:25 | 50.00354 | 0.47090 | 27438 ft | 455 kts | 147° |
| 2026-05-06 10:25 | 49.97704 | 0.49789 | 27717 ft | 456 kts | 147° |
| 2026-05-06 10:26 | 49.95046 | 0.52493 | 27968 ft | 458 kts | 146° |
| 2026-05-06 10:26 | 49.92408 | 0.55168 | 28205 ft | 460 kts | 147° |
| 2026-05-06 10:26 | 49.89729 | 0.57878 | 28480 ft | 460 kts | 147° |
| 2026-05-06 10:26 | 49.87051 | 0.60589 | 28758 ft | 460 kts | 146° |
| 2026-05-06 10:27 | 49.84533 | 0.63634 | 29097 ft | 458 kts | 137° |
| 2026-05-06 10:27 | 49.82216 | 0.67017 | 29425 ft | 458 kts | 136° |
| 2026-05-06 10:27 | 49.79906 | 0.70398 | 29777 ft | 456 kts | 136° |
| 2026-05-06 10:27 | 49.77601 | 0.73761 | 30114 ft | 455 kts | 136° |
| 2026-05-06 10:28 | 49.75300 | 0.77110 | 30395 ft | 454 kts | 136° |
| 2026-05-06 10:28 | 49.72998 | 0.80451 | 30658 ft | 454 kts | 136° |
| 2026-05-06 10:28 | 49.70726 | 0.83742 | 30886 ft | 454 kts | 136° |
| 2026-05-06 10:28 | 49.68414 | 0.87082 | 30951 ft | 454 kts | 136° |
| 2026-05-06 10:29 | 49.63803 | 0.93722 | 30947 ft | 452 kts | 136° |
| 2026-05-06 10:29 | 49.59211 | 1.00320 | 30943 ft | 451 kts | 136° |
| 2026-05-06 10:30 | 49.54620 | 1.06900 | 30949 ft | 451 kts | 136° |
| 2026-05-06 10:30 | 49.50060 | 1.13429 | 30945 ft | 451 kts | 136° |
| 2026-05-06 10:31 | 49.45461 | 1.20003 | 30947 ft | 452 kts | 136° |
| 2026-05-06 10:31 | 49.40850 | 1.26564 | 30942 ft | 451 kts | 136° |
| 2026-05-06 10:32 | 49.36273 | 1.33068 | 30939 ft | 452 kts | 136° |
| 2026-05-06 10:32 | 49.31657 | 1.39614 | 30939 ft | 452 kts | 136° |
| 2026-05-06 10:33 | 49.27029 | 1.46154 | 30930 ft | 453 kts | 136° |
| 2026-05-06 10:33 | 49.22394 | 1.52673 | 30927 ft | 453 kts | 136° |
| 2026-05-06 10:34 | 49.17755 | 1.59188 | 30924 ft | 453 kts | 135° |
| 2026-05-06 10:34 | 49.13151 | 1.65651 | 30918 ft | 452 kts | 136° |
| 2026-05-06 10:35 | 49.08510 | 1.72139 | 30916 ft | 453 kts | 136° |
| 2026-05-06 10:35 | 49.03855 | 1.78615 | 30929 ft | 452 kts | 136° |
| 2026-05-06 10:36 | 48.99208 | 1.85064 | 30941 ft | 452 kts | 136° |
| 2026-05-06 10:36 | 48.94569 | 1.91503 | 30939 ft | 450 kts | 136° |
| 2026-05-06 10:37 | 48.89970 | 1.97867 | 30936 ft | 450 kts | 136° |
| 2026-05-06 10:37 | 48.85341 | 2.04263 | 30929 ft | 450 kts | 136° |
| 2026-05-06 10:38 | 48.80714 | 2.10639 | 30923 ft | 449 kts | 137° |
| 2026-05-06 10:38 | 48.76079 | 2.16987 | 30916 ft | 449 kts | 136° |
| 2026-05-06 10:39 | 48.71450 | 2.23323 | 30935 ft | 447 kts | 136° |
| 2026-05-06 10:39 | 48.66874 | 2.29578 | 30936 ft | 446 kts | 137° |
| 2026-05-06 10:40 | 48.62267 | 2.35838 | 30934 ft | 445 kts | 137° |
| 2026-05-06 10:40 | 48.58028 | 2.41579 | 30929 ft | 444 kts | 136° |
| 2026-05-06 10:41 | 48.53436 | 2.47810 | 30919 ft | 444 kts | 137° |
| 2026-05-06 10:41 | 48.48872 | 2.53992 | 30903 ft | 444 kts | 136° |
| 2026-05-06 10:42 | 48.44274 | 2.60192 | 30891 ft | 444 kts | 138° |
| 2026-05-06 10:42 | 48.39665 | 2.66386 | 30901 ft | 444 kts | 139° |
| 2026-05-06 10:43 | 48.35058 | 2.72554 | 30915 ft | 443 kts | 139° |
| 2026-05-06 10:44 | 48.28193 | 2.81736 | 30913 ft | 442 kts | 139° |
| 2026-05-06 10:44 | 48.23471 | 2.87626 | 30914 ft | 440 kts | 143° |
| 2026-05-06 10:45 | 48.18580 | 2.93150 | 30911 ft | 440 kts | 144° |
| 2026-05-06 10:45 | 48.13713 | 2.98589 | 30893 ft | 440 kts | 144° |
| 2026-05-06 10:46 | 48.08815 | 3.04039 | 30903 ft | 438 kts | 148° |
| 2026-05-06 10:46 | 48.03350 | 3.07968 | 30904 ft | 436 kts | 157° |
| 2026-05-06 10:47 | 47.97763 | 3.11485 | 30902 ft | 435 kts | 158° |
| 2026-05-06 10:47 | 47.92218 | 3.14957 | 30903 ft | 435 kts | 157° |
| 2026-05-06 10:48 | 47.86714 | 3.18400 | 30900 ft | 434 kts | 157° |
| 2026-05-06 10:48 | 47.81149 | 3.21889 | 30892 ft | 434 kts | 157° |
| 2026-05-06 10:49 | 47.75582 | 3.25370 | 30894 ft | 434 kts | 157° |
| 2026-05-06 10:49 | 47.70067 | 3.28801 | 30890 ft | 434 kts | 157° |
| 2026-05-06 10:50 | 47.64500 | 3.32264 | 30884 ft | 434 kts | 157° |
| 2026-05-06 10:50 | 47.58934 | 3.35720 | 30875 ft | 434 kts | 157° |
| 2026-05-06 10:51 | 47.53368 | 3.39165 | 30874 ft | 433 kts | 157° |
| 2026-05-06 10:51 | 47.47870 | 3.42547 | 30867 ft | 432 kts | 157° |
| 2026-05-06 10:52 | 47.42319 | 3.45961 | 30863 ft | 432 kts | 157° |
| 2026-05-06 10:52 | 47.36769 | 3.49379 | 30859 ft | 432 kts | 157° |
| 2026-05-06 10:53 | 47.31223 | 3.52780 | 30860 ft | 432 kts | 156° |
| 2026-05-06 10:53 | 47.25715 | 3.56159 | 30866 ft | 432 kts | 156° |
| 2026-05-06 10:54 | 47.20166 | 3.59541 | 30855 ft | 432 kts | 157° |
| 2026-05-06 10:54 | 47.14613 | 3.62922 | 30854 ft | 432 kts | 157° |
| 2026-05-06 10:55 | 47.09064 | 3.66295 | 30862 ft | 432 kts | 156° |
| 2026-05-06 10:55 | 47.03553 | 3.69632 | 30870 ft | 431 kts | 156° |
| 2026-05-06 10:56 | 46.98117 | 3.73305 | 30872 ft | 430 kts | 147° |
| 2026-05-06 10:56 | 46.93732 | 3.79184 | 30872 ft | 430 kts | 127° |
| 2026-05-06 10:57 | 46.90979 | 3.86934 | 30883 ft | 432 kts | 112° |
| 2026-05-06 10:57 | 46.88837 | 3.95071 | 30870 ft | 431 kts | 112° |
| 2026-05-06 10:58 | 46.86666 | 4.03250 | 30865 ft | 432 kts | 112° |
| 2026-05-06 10:58 | 46.84480 | 4.11423 | 30863 ft | 432 kts | 112° |
| 2026-05-06 10:59 | 46.82289 | 4.19586 | 30857 ft | 432 kts | 113° |
| 2026-05-06 10:59 | 46.80315 | 4.27809 | 30856 ft | 434 kts | 104° |
| 2026-05-06 11:00 | 46.79081 | 4.36436 | 30859 ft | 434 kts | 104° |
| 2026-05-06 11:00 | 46.78456 | 4.40747 | 30664 ft | 434 kts | 104° |
| 2026-05-06 11:00 | 46.77827 | 4.45052 | 30455 ft | 432 kts | 104° |
| 2026-05-06 11:00 | 46.77197 | 4.49335 | 30294 ft | 432 kts | 104° |
| 2026-05-06 11:01 | 46.76563 | 4.53608 | 30047 ft | 430 kts | 104° |
| 2026-05-06 11:01 | 46.75931 | 4.57862 | 29785 ft | 429 kts | 104° |
| 2026-05-06 11:01 | 46.75309 | 4.62049 | 29498 ft | 428 kts | 104° |
| 2026-05-06 11:01 | 46.74680 | 4.66295 | 29208 ft | 429 kts | 104° |
| 2026-05-06 11:02 | 46.74049 | 4.70556 | 28936 ft | 430 kts | 104° |
| 2026-05-06 11:02 | 46.72775 | 4.79093 | 28887 ft | 432 kts | 104° |
| 2026-05-06 11:02 | 46.72133 | 4.83370 | 28751 ft | 432 kts | 104° |
| 2026-05-06 11:03 | 46.71488 | 4.87651 | 28462 ft | 433 kts | 104° |
| 2026-05-06 11:03 | 46.70847 | 4.91894 | 28187 ft | 435 kts | 104° |
| 2026-05-06 11:03 | 46.70192 | 4.96205 | 27918 ft | 437 kts | 104° |
| 2026-05-06 11:03 | 46.69534 | 5.00541 | 27645 ft | 438 kts | 104° |
| 2026-05-06 11:04 | 46.68879 | 5.04877 | 27385 ft | 440 kts | 104° |
| 2026-05-06 11:04 | 46.68218 | 5.09234 | 27123 ft | 441 kts | 104° |
| 2026-05-06 11:04 | 46.67555 | 5.13594 | 26855 ft | 442 kts | 104° |
| 2026-05-06 11:04 | 46.66888 | 5.17957 | 26590 ft | 441 kts | 104° |
| 2026-05-06 11:05 | 46.66224 | 5.22311 | 26336 ft | 440 kts | 103° |
| 2026-05-06 11:05 | 46.65566 | 5.26649 | 26077 ft | 439 kts | 103° |
| 2026-05-06 11:05 | 46.64911 | 5.30988 | 25809 ft | 440 kts | 103° |
| 2026-05-06 11:05 | 46.64259 | 5.35321 | 25239 ft | 436 kts | 103° |
| 2026-05-06 11:06 | 46.63621 | 5.39556 | 24510 ft | 432 kts | 103° |
| 2026-05-06 11:06 | 46.62976 | 5.43806 | 23793 ft | 429 kts | 103° |
| 2026-05-06 11:06 | 46.62333 | 5.48014 | 23034 ft | 426 kts | 103° |
| 2026-05-06 11:06 | 46.61688 | 5.52201 | 22367 ft | 420 kts | 104° |
| 2026-05-06 11:07 | 46.61047 | 5.56330 | 21713 ft | 416 kts | 104° |
| 2026-05-06 11:07 | 46.60409 | 5.60408 | 21089 ft | 412 kts | 104° |
| 2026-05-06 11:07 | 46.59776 | 5.64444 | 20483 ft | 408 kts | 104° |
| 2026-05-06 11:07 | 46.59155 | 5.68391 | 19896 ft | 404 kts | 105° |
| 2026-05-06 11:08 | 46.58542 | 5.72288 | 19348 ft | 400 kts | 104° |
| 2026-05-06 11:08 | 46.57741 | 5.76203 | 18800 ft | 395 kts | 114° |
| 2026-05-06 11:08 | 46.56524 | 5.79736 | 18282 ft | 389 kts | 124° |
| 2026-05-06 11:08 | 46.54914 | 5.82866 | 17785 ft | 382 kts | 135° |
| 2026-05-06 11:09 | 46.53022 | 5.85450 | 17646 ft | 366 kts | 143° |
| 2026-05-06 11:09 | 46.51031 | 5.87530 | 17501 ft | 340 kts | 147° |
| 2026-05-06 11:09 | 46.49171 | 5.89459 | 17371 ft | 317 kts | 141° |
| 2026-05-06 11:09 | 46.47769 | 5.91797 | 17242 ft | 303 kts | 122° |
| 2026-05-06 11:10 | 46.46993 | 5.94601 | 17108 ft | 300 kts | 103° |
| 2026-05-06 11:10 | 46.46893 | 5.97558 | 16963 ft | 298 kts | 85° |
| 2026-05-06 11:10 | 46.47471 | 6.00412 | 16827 ft | 294 kts | 64° |
| 2026-05-06 11:10 | 46.48629 | 6.02798 | 16639 ft | 292 kts | 45° |
| 2026-05-06 11:11 | 46.50260 | 6.04524 | 16442 ft | 290 kts | 25° |
| 2026-05-06 11:11 | 46.52164 | 6.05387 | 16412 ft | 287 kts | 5° |
| 2026-05-06 11:11 | 46.54152 | 6.05345 | 16420 ft | 285 kts | 346° |
| 2026-05-06 11:11 | 46.56005 | 6.04413 | 16418 ft | 281 kts | 328° |
| 2026-05-06 11:12 | 46.57682 | 6.02956 | 16418 ft | 280 kts | 324° |
| 2026-05-06 11:12 | 46.59271 | 6.01379 | 16414 ft | 280 kts | 322° |
| 2026-05-06 11:12 | 46.60854 | 5.99730 | 16412 ft | 280 kts | 321° |
| 2026-05-06 11:12 | 46.62434 | 5.98067 | 16425 ft | 280 kts | 320° |
| 2026-05-06 11:13 | 46.64011 | 5.96414 | 16422 ft | 279 kts | 321° |
| 2026-05-06 11:13 | 46.65418 | 5.94507 | 16423 ft | 275 kts | 305° |
| 2026-05-06 11:13 | 46.66367 | 5.92127 | 16418 ft | 271 kts | 287° |
| 2026-05-06 11:13 | 46.66777 | 5.89477 | 16420 ft | 267 kts | 270° |
| 2026-05-06 11:14 | 46.66627 | 5.86809 | 16422 ft | 264 kts | 253° |
| 2026-05-06 11:14 | 46.65970 | 5.84381 | 16429 ft | 260 kts | 237° |
| 2026-05-06 11:14 | 46.64865 | 5.82323 | 16433 ft | 258 kts | 221° |
| 2026-05-06 11:14 | 46.63416 | 5.80815 | 16426 ft | 257 kts | 206° |
| 2026-05-06 11:15 | 46.61734 | 5.79973 | 16423 ft | 256 kts | 190° |
| 2026-05-06 11:15 | 46.59944 | 5.79864 | 16429 ft | 259 kts | 174° |
| 2026-05-06 11:15 | 46.58196 | 5.80506 | 16438 ft | 261 kts | 159° |
| 2026-05-06 11:15 | 46.56593 | 5.81763 | 16435 ft | 263 kts | 150° |
| 2026-05-06 11:16 | 46.55065 | 5.83235 | 16430 ft | 264 kts | 147° |
| 2026-05-06 11:16 | 46.53584 | 5.84765 | 16430 ft | 265 kts | 147° |
| 2026-05-06 11:16 | 46.52086 | 5.86338 | 16407 ft | 267 kts | 147° |
| 2026-05-06 11:16 | 46.50581 | 5.87915 | 16133 ft | 265 kts | 147° |
| 2026-05-06 11:17 | 46.49066 | 5.89412 | 15960 ft | 261 kts | 156° |
| 2026-05-06 11:17 | 46.47353 | 5.90081 | 15928 ft | 255 kts | 181° |
| 2026-05-06 11:17 | 46.45632 | 5.89618 | 15928 ft | 253 kts | 205° |
| 2026-05-06 11:17 | 46.44217 | 5.88118 | 15935 ft | 255 kts | 230° |
| 2026-05-06 11:18 | 46.43382 | 5.85860 | 15926 ft | 258 kts | 255° |
| 2026-05-06 11:18 | 46.43304 | 5.83290 | 15932 ft | 264 kts | 279° |
| 2026-05-06 11:18 | 46.44032 | 5.80843 | 15931 ft | 270 kts | 306° |
| 2026-05-06 11:18 | 46.45439 | 5.79024 | 15940 ft | 274 kts | 323° |
| 2026-05-06 11:19 | 46.47179 | 5.77903 | 15928 ft | 278 kts | 350° |
| 2026-05-06 11:19 | 46.49109 | 5.78057 | 15933 ft | 282 kts | 19° |
| 2026-05-06 11:19 | 46.50775 | 5.79521 | 15929 ft | 282 kts | 49° |
| 2026-05-06 11:19 | 46.51761 | 5.81929 | 15932 ft | 278 kts | 77° |
| 2026-05-06 11:20 | 46.51855 | 5.84675 | 15927 ft | 272 kts | 106° |
| 2026-05-06 11:20 | 46.51092 | 5.87127 | 15927 ft | 265 kts | 133° |
| 2026-05-06 11:20 | 46.49752 | 5.88866 | 15940 ft | 262 kts | 147° |
| 2026-05-06 11:20 | 46.48222 | 5.90453 | 15939 ft | 285 kts | 148° |
| 2026-05-06 11:21 | 46.46521 | 5.92144 | 15930 ft | 304 kts | 148° |
| 2026-05-06 11:21 | 46.44757 | 5.93883 | 15918 ft | 308 kts | 148° |
| 2026-05-06 11:21 | 46.42982 | 5.95636 | 15694 ft | 308 kts | 148° |
| 2026-05-06 11:21 | 46.41215 | 5.97391 | 15541 ft | 308 kts | 148° |
| 2026-05-06 11:22 | 46.39439 | 5.99160 | 15385 ft | 311 kts | 147° |
| 2026-05-06 11:22 | 46.37837 | 6.01264 | 15234 ft | 315 kts | 128° |
| 2026-05-06 11:22 | 46.36903 | 6.04131 | 15084 ft | 319 kts | 105° |
| 2026-05-06 11:22 | 46.36801 | 6.07309 | 14748 ft | 327 kts | 83° |
| 2026-05-06 11:23 | 46.37660 | 6.10392 | 14260 ft | 334 kts | 54° |
| 2026-05-06 11:23 | 46.39215 | 6.12864 | 13938 ft | 332 kts | 45° |
| 2026-05-06 11:23 | 46.40838 | 6.15236 | 13543 ft | 331 kts | 45° |
| 2026-05-06 11:23 | 46.42463 | 6.17611 | 13117 ft | 331 kts | 45° |
| 2026-05-06 11:24 | 46.44080 | 6.19980 | 12751 ft | 330 kts | 46° |
| 2026-05-06 11:24 | 46.45689 | 6.22340 | 12362 ft | 328 kts | 46° |
| 2026-05-06 11:24 | 46.47286 | 6.24692 | 12016 ft | 326 kts | 46° |
| 2026-05-06 11:24 | 46.48874 | 6.27037 | 11586 ft | 326 kts | 46° |
| 2026-05-06 11:25 | 46.50410 | 6.29469 | 10971 ft | 331 kts | 55° |
| 2026-05-06 11:25 | 46.51427 | 6.32377 | 10796 ft | 318 kts | 76° |
| 2026-05-06 11:25 | 46.51711 | 6.35462 | 10667 ft | 301 kts | 97° |
| 2026-05-06 11:25 | 46.51324 | 6.38346 | 10544 ft | 284 kts | 115° |
| 2026-05-06 11:26 | 46.50396 | 6.40782 | 10377 ft | 270 kts | 133° |
| 2026-05-06 11:26 | 46.49080 | 6.42638 | 10072 ft | 261 kts | 149° |
| 2026-05-06 11:26 | 46.47639 | 6.44227 | 9717 ft | 264 kts | 136° |
| 2026-05-06 11:26 | 46.46865 | 6.46639 | 9333 ft | 272 kts | 99° |
| 2026-05-06 11:27 | 46.47177 | 6.49343 | 8952 ft | 279 kts | 63° |
| 2026-05-06 11:27 | 46.48447 | 6.51450 | 8575 ft | 280 kts | 36° |
| 2026-05-06 11:27 | 46.50097 | 6.52849 | 8243 ft | 279 kts | 21° |
| 2026-05-06 11:27 | 46.51924 | 6.53731 | 7957 ft | 276 kts | 14° |
| 2026-05-06 11:28 | 46.53736 | 6.54643 | 7878 ft | 276 kts | 19° |
| 2026-05-06 11:28 | 46.55567 | 6.55488 | 7887 ft | 275 kts | 6° |
| 2026-05-06 11:28 | 46.57430 | 6.55325 | 7888 ft | 266 kts | 335° |
| 2026-05-06 11:28 | 46.58913 | 6.53869 | 7894 ft | 255 kts | 304° |
| 2026-05-06 11:29 | 46.59686 | 6.51679 | 7888 ft | 235 kts | 278° |
| 2026-05-06 11:29 | 46.59757 | 6.49432 | 7890 ft | 221 kts | 257° |
| 2026-05-06 11:29 | 46.59253 | 6.47369 | 7897 ft | 216 kts | 237° |
| 2026-05-06 11:29 | 46.58279 | 6.45758 | 7898 ft | 213 kts | 219° |
| 2026-05-06 11:30 | 46.56946 | 6.44773 | 7899 ft | 219 kts | 198° |
| 2026-05-06 11:30 | 46.55418 | 6.44593 | 7896 ft | 226 kts | 175° |
| 2026-05-06 11:30 | 46.53883 | 6.45238 | 7904 ft | 232 kts | 162° |
| 2026-05-06 11:30 | 46.52385 | 6.46149 | 7892 ft | 234 kts | 160° |
| 2026-05-06 11:31 | 46.50896 | 6.46976 | 7885 ft | 225 kts | 172° |
| 2026-05-06 11:31 | 46.49365 | 6.47052 | 7891 ft | 219 kts | 193° |
| 2026-05-06 11:31 | 46.47985 | 6.46283 | 7892 ft | 216 kts | 215° |
| 2026-05-06 11:31 | 46.46849 | 6.44877 | 7893 ft | 215 kts | 227° |
| 2026-05-06 11:32 | 46.46159 | 6.42975 | 7908 ft | 218 kts | 259° |
| 2026-05-06 11:32 | 46.46286 | 6.40789 | 7909 ft | 223 kts | 290° |
| 2026-05-06 11:32 | 46.47236 | 6.39007 | 7901 ft | 231 kts | 323° |
| 2026-05-06 11:32 | 46.48774 | 6.38288 | 7900 ft | 241 kts | 359° |
| 2026-05-06 11:33 | 46.50375 | 6.39048 | 7896 ft | 250 kts | 36° |
| 2026-05-06 11:33 | 46.51614 | 6.40868 | 7904 ft | 257 kts | 46° |
| 2026-05-06 11:33 | 46.52812 | 6.42733 | 7898 ft | 254 kts | 47° |
| 2026-05-06 11:33 | 46.53725 | 6.44887 | 7840 ft | 254 kts | 79° |
| 2026-05-06 11:34 | 46.53614 | 6.47358 | 7708 ft | 243 kts | 120° |
| 2026-05-06 11:34 | 46.52544 | 6.49069 | 7575 ft | 225 kts | 160° |
| 2026-05-06 11:34 | 46.51057 | 6.49369 | 7457 ft | 216 kts | 192° |
| 2026-05-06 11:34 | 46.49674 | 6.48721 | 7323 ft | 204 kts | 211° |
| 2026-05-06 11:35 | 46.48591 | 6.47502 | 7227 ft | 190 kts | 224° |
| 2026-05-06 11:35 | 46.47684 | 6.46169 | 7102 ft | 183 kts | 226° |
| 2026-05-06 11:35 | 46.46818 | 6.44833 | 6980 ft | 181 kts | 227° |
| 2026-05-06 11:35 | 46.45954 | 6.43520 | 6856 ft | 179 kts | 229° |
| 2026-05-06 11:36 | 46.45103 | 6.42252 | 6739 ft | 178 kts | 229° |
| 2026-05-06 11:36 | 46.44233 | 6.40963 | 6616 ft | 179 kts | 228° |
| 2026-05-06 11:36 | 46.43375 | 6.39699 | 6510 ft | 174 kts | 228° |
| 2026-05-06 11:36 | 46.42532 | 6.38462 | 6397 ft | 170 kts | 229° |
| 2026-05-06 11:37 | 46.41705 | 6.37250 | 6262 ft | 166 kts | 230° |
| 2026-05-06 11:37 | 46.40890 | 6.36056 | 6022 ft | 168 kts | 228° |
| 2026-05-06 11:37 | 46.40062 | 6.34848 | 5738 ft | 169 kts | 229° |
| 2026-05-06 11:37 | 46.39250 | 6.33667 | 5453 ft | 164 kts | 227° |
| 2026-05-06 11:38 | 46.38449 | 6.32490 | 5217 ft | 168 kts | 228° |
| 2026-05-06 11:38 | 46.37628 | 6.31277 | 4987 ft | 168 kts | 228° |
| 2026-05-06 11:38 | 46.36813 | 6.30072 | 4747 ft | 168 kts | 227° |
| 2026-05-06 11:38 | 46.35993 | 6.28860 | 4529 ft | 169 kts | 227° |
| 2026-05-06 11:39 | 46.35178 | 6.27655 | 4300 ft | 166 kts | 227° |
| 2026-05-06 11:39 | 46.34365 | 6.26453 | 4068 ft | 168 kts | 227° |
| 2026-05-06 11:39 | 46.33552 | 6.25253 | 3842 ft | 166 kts | 226° |
| 2026-05-06 11:39 | 46.32745 | 6.24061 | 3617 ft | 165 kts | 226° |
| 2026-05-06 11:40 | 46.31948 | 6.22885 | 3396 ft | 166 kts | 227° |
| 2026-05-06 11:40 | 46.31149 | 6.21707 | 3177 ft | 163 kts | 226° |
| 2026-05-06 11:40 | 46.30356 | 6.20535 | 2951 ft | 164 kts | 226° |
| 2026-05-06 11:40 | 46.29567 | 6.19362 | 2705 ft | 155 kts | 227° |
| 2026-05-06 11:41 | 46.28846 | 6.18295 | 2445 ft | 140 kts | 226° |
| 2026-05-06 11:41 | 46.28182 | 6.17287 | 2261 ft | 137 kts | 228° |
| 2026-05-06 11:41 | 46.27532 | 6.16297 | 2077 ft | 134 kts | 226° |
| 2026-05-06 11:41 | 46.26874 | 6.15335 | 1943 ft | 135 kts | 225° |
| 2026-05-06 11:42 | 46.26201 | 6.14393 | 1747 ft | 134 kts | 222° |
| 2026-05-06 11:42 | 46.25549 | 6.13437 | 1580 ft | 136 kts | 225° |
| 2026-05-06 11:42 | 46.24891 | 6.12478 | 1387 ft | 134 kts | 225° |
| 2026-05-06 11:42 | 46.24286 | 6.11576 | 1379 ft | 132 kts | 225° |
| 2026-05-06 11:43 | 46.23555 | 6.10448 | 1724 ft | 165 kts | 226° |
| 2026-05-06 11:43 | 46.22761 | 6.09214 | 2220 ft | 173 kts | 226° |
| 2026-05-06 11:43 | 46.21897 | 6.07914 | 2612 ft | 183 kts | 226° |
| 2026-05-06 11:44 | 46.20101 | 6.05319 | 3631 ft | 183 kts | 226° |
| 2026-05-06 11:44 | 46.19203 | 6.04031 | 4391 ft | 183 kts | 227° |
| 2026-05-06 11:44 | 46.18261 | 6.02676 | 4777 ft | 204 kts | 226° |
| 2026-05-06 11:44 | 46.17235 | 6.01201 | 5476 ft | 211 kts | 227° |
| 2026-05-06 11:45 | 46.16189 | 5.99698 | 6307 ft | 213 kts | 227° |
| 2026-05-06 11:45 | 46.15119 | 5.98162 | 6831 ft | 221 kts | 227° |
| 2026-05-06 11:45 | 46.14011 | 5.96625 | 6974 ft | 223 kts | 220° |
| 2026-05-06 11:45 | 46.12554 | 5.95888 | 7011 ft | 231 kts | 181° |
| 2026-05-06 11:46 | 46.11069 | 5.96715 | 7004 ft | 241 kts | 140° |
| 2026-05-06 11:46 | 46.10235 | 5.98794 | 7008 ft | 246 kts | 99° |
| 2026-05-06 11:46 | 46.10467 | 6.01161 | 7011 ft | 246 kts | 59° |
| 2026-05-06 11:46 | 46.11564 | 6.03025 | 7009 ft | 245 kts | 38° |
| 2026-05-06 11:47 | 46.12843 | 6.04659 | 7008 ft | 245 kts | 39° |
| 2026-05-06 11:47 | 46.14144 | 6.06256 | 7006 ft | 245 kts | 36° |
| 2026-05-06 11:47 | 46.15470 | 6.07814 | 7004 ft | 247 kts | 37° |
| 2026-05-06 11:47 | 46.16810 | 6.09367 | 7010 ft | 246 kts | 37° |
| 2026-05-06 11:48 | 46.18144 | 6.10916 | 7006 ft | 246 kts | 36° |
| 2026-05-06 11:48 | 46.19476 | 6.12469 | 7007 ft | 246 kts | 37° |
| 2026-05-06 11:48 | 46.20789 | 6.14001 | 7012 ft | 245 kts | 37° |
| 2026-05-06 11:48 | 46.22110 | 6.15550 | 7007 ft | 245 kts | 37° |
| 2026-05-06 11:49 | 46.23436 | 6.17105 | 7014 ft | 246 kts | 37° |
| 2026-05-06 11:49 | 46.24763 | 6.18662 | 7008 ft | 246 kts | 37° |
| 2026-05-06 11:49 | 46.26089 | 6.20218 | 7004 ft | 246 kts | 37° |
| 2026-05-06 11:49 | 46.27418 | 6.21780 | 7009 ft | 246 kts | 37° |
| 2026-05-06 11:50 | 46.28746 | 6.23343 | 7004 ft | 246 kts | 37° |
| 2026-05-06 11:50 | 46.30072 | 6.24904 | 7008 ft | 245 kts | 36° |
| 2026-05-06 11:50 | 46.31379 | 6.26441 | 7011 ft | 246 kts | 37° |
| 2026-05-06 11:50 | 46.32706 | 6.28004 | 7004 ft | 246 kts | 37° |
| 2026-05-06 11:51 | 46.34028 | 6.29567 | 7004 ft | 245 kts | 37° |
| 2026-05-06 11:51 | 46.35351 | 6.31130 | 7006 ft | 246 kts | 37° |
| 2026-05-06 11:51 | 46.36676 | 6.32698 | 7009 ft | 246 kts | 37° |
| 2026-05-06 11:51 | 46.37998 | 6.34264 | 7010 ft | 245 kts | 37° |
| 2026-05-06 11:52 | 46.39317 | 6.35828 | 7011 ft | 245 kts | 37° |
| 2026-05-06 11:52 | 46.40653 | 6.37411 | 7007 ft | 249 kts | 36° |
| 2026-05-06 11:52 | 46.41992 | 6.38998 | 6997 ft | 248 kts | 36° |
| 2026-05-06 11:52 | 46.43311 | 6.40567 | 6991 ft | 249 kts | 36° |
| 2026-05-06 11:53 | 46.44661 | 6.42170 | 6998 ft | 251 kts | 38° |
| 2026-05-06 11:53 | 46.46004 | 6.43767 | 7000 ft | 248 kts | 37° |
| 2026-05-06 11:53 | 46.47405 | 6.45205 | 6980 ft | 246 kts | 18° |
| 2026-05-06 11:53 | 46.49056 | 6.45378 | 6987 ft | 238 kts | 338° |
| 2026-05-06 11:54 | 46.50360 | 6.44094 | 6854 ft | 221 kts | 299° |
| 2026-05-06 11:54 | 46.50694 | 6.42069 | 6744 ft | 203 kts | 257° |
| 2026-05-06 11:54 | 46.49993 | 6.40402 | 6654 ft | 193 kts | 223° |
| 2026-05-06 11:54 | 46.48795 | 6.39754 | 6488 ft | 182 kts | 196° |
| 2026-05-06 11:55 | 46.47615 | 6.39315 | 6355 ft | 173 kts | 202° |
| 2026-05-06 11:55 | 46.46449 | 6.38840 | 6203 ft | 174 kts | 202° |
| 2026-05-06 11:55 | 46.45286 | 6.38368 | 6044 ft | 173 kts | 203° |
| 2026-05-06 11:55 | 46.44116 | 6.37892 | 5890 ft | 175 kts | 200° |
| 2026-05-06 11:56 | 46.42938 | 6.37414 | 5737 ft | 175 kts | 202° |
| 2026-05-06 11:56 | 46.41823 | 6.36795 | 5585 ft | 168 kts | 216° |
| 2026-05-06 11:56 | 46.40870 | 6.35821 | 5441 ft | 167 kts | 224° |
| 2026-05-06 11:56 | 46.40008 | 6.34708 | 5303 ft | 170 kts | 226° |
| 2026-05-06 11:57 | 46.39159 | 6.33511 | 5139 ft | 171 kts | 227° |
| 2026-05-06 11:57 | 46.38318 | 6.32288 | 5074 ft | 171 kts | 227° |
| 2026-05-06 11:57 | 46.37502 | 6.31089 | 4908 ft | 158 kts | 228° |
| 2026-05-06 11:57 | 46.36778 | 6.30022 | 4721 ft | 142 kts | 229° |
| 2026-05-06 11:58 | 46.36098 | 6.29017 | 4545 ft | 138 kts | 228° |
| 2026-05-06 11:58 | 46.35428 | 6.28025 | 4360 ft | 138 kts | 227° |
| 2026-05-06 11:58 | 46.34764 | 6.27044 | 4178 ft | 136 kts | 227° |
| 2026-05-06 11:58 | 46.34103 | 6.26067 | 3987 ft | 136 kts | 228° |
| 2026-05-06 11:59 | 46.33453 | 6.25107 | 3809 ft | 135 kts | 227° |
| 2026-05-06 11:59 | 46.32797 | 6.24137 | 3629 ft | 135 kts | 226° |
| 2026-05-06 11:59 | 46.32137 | 6.23164 | 3441 ft | 136 kts | 227° |
| 2026-05-06 11:59 | 46.31480 | 6.22195 | 3263 ft | 134 kts | 227° |
| 2026-05-06 12:00 | 46.30827 | 6.21232 | 3075 ft | 135 kts | 226° |
| 2026-05-06 12:00 | 46.30170 | 6.20263 | 2883 ft | 136 kts | 226° |
| 2026-05-06 12:00 | 46.29513 | 6.19295 | 2695 ft | 133 kts | 225° |
| 2026-05-06 12:00 | 46.28857 | 6.18328 | 2472 ft | 136 kts | 226° |
| 2026-05-06 12:01 | 46.28216 | 6.17352 | 2249 ft | 137 kts | 228° |
| 2026-05-06 12:01 | 46.27571 | 6.16349 | 2055 ft | 136 kts | 224° |
| 2026-05-06 12:01 | 46.26916 | 6.15369 | 1916 ft | 135 kts | 224° |
| 2026-05-06 12:01 | 46.26267 | 6.14402 | 1768 ft | 134 kts | 224° |
| 2026-05-06 12:02 | 46.25597 | 6.13467 | 1624 ft | 134 kts | 222° |
| 2026-05-06 12:02 | 46.24923 | 6.12543 | 1369 ft | 133 kts | 232° |
| 2026-05-06 12:02 | 46.24343 | 6.11565 | 1530 ft | 142 kts | 230° |
| 2026-05-06 12:02 | 46.23633 | 6.10444 | 2176 ft | 162 kts | 223° |
| 2026-05-06 12:03 | 46.22562 | 6.09713 | 2813 ft | 190 kts | 189° |
| 2026-05-06 12:03 | 46.21191 | 6.10127 | 3333 ft | 216 kts | 154° |